createdAt,value
2018-07-06T00:01:24.295Z,55.80
2018-07-06T00:04:04.086Z,56.07
2018-07-06T00:06:43.744Z,55.52
2018-07-06T00:09:23.571Z,57.22
2018-07-06T00:12:03.320Z,56.01
2018-07-06T00:14:43.164Z,56.31
2018-07-06T00:17:22.831Z,57.60
2018-07-06T00:20:02.637Z,56.41
2018-07-06T00:22:42.299Z,55.53
2018-07-06T00:25:22.067Z,56.16
2018-07-06T00:28:01.774Z,56.93
2018-07-06T00:30:41.366Z,56.71
2018-07-06T00:33:21.051Z,56.20
2018-07-06T00:36:01.388Z,56.69
2018-07-06T00:38:41.085Z,56.29
2018-07-06T00:41:20.879Z,57.77
2018-07-06T00:44:00.659Z,55.97
2018-07-06T00:46:40.448Z,58.37
2018-07-06T00:49:20.327Z,58.30
2018-07-06T00:52:00.053Z,58.28
2018-07-06T00:54:39.896Z,59.80
2018-07-06T00:57:20.121Z,57.77
2018-07-06T00:59:59.994Z,56.92
2018-07-06T01:02:39.783Z,57.38
2018-07-06T01:05:19.532Z,57.73
2018-07-06T01:07:59.199Z,58.31
2018-07-06T01:10:38.872Z,58.24
2018-07-06T01:13:18.770Z,57.24
2018-07-06T01:15:58.363Z,58.93
2018-07-06T01:18:38.137Z,58.54
2018-07-06T01:21:17.839Z,57.77
2018-07-06T01:23:57.600Z,58.71
2018-07-06T01:26:37.427Z,59.51
2018-07-06T01:29:17.210Z,59.64
2018-07-06T01:31:57.044Z,58.98
2018-07-06T01:34:36.782Z,59.36
2018-07-06T01:37:16.571Z,58.15
2018-07-06T01:39:56.296Z,58.10
2018-07-06T01:42:36.131Z,58.52
2018-07-06T01:45:15.867Z,58.21
2018-07-06T01:47:55.643Z,59.19
2018-07-06T01:50:35.438Z,59.70
2018-07-06T01:53:15.391Z,58.85
2018-07-06T01:56:01.104Z,58.99
2018-07-06T01:58:40.988Z,59.52
2018-07-06T02:01:20.565Z,58.30
2018-07-06T02:04:00.311Z,58.42
2018-07-06T02:06:39.974Z,58.68
2018-07-06T02:09:19.812Z,58.65
2018-07-06T02:11:59.555Z,59.26
2018-07-06T02:14:39.324Z,59.35
2018-07-06T02:17:19.116Z,59.56
2018-07-06T02:19:58.827Z,60.55
2018-07-06T02:22:38.632Z,59.64
2018-07-06T02:25:18.316Z,59.39
2018-07-06T02:27:58.023Z,59.79
2018-07-06T02:30:37.826Z,59.21
2018-07-06T02:33:17.655Z,59.83
2018-07-06T02:35:57.361Z,59.64
2018-07-06T02:38:37.031Z,59.38
2018-07-06T02:41:16.771Z,59.91
2018-07-06T02:43:56.474Z,60.58
2018-07-06T02:46:36.277Z,59.83
2018-07-06T02:49:16.022Z,59.23
2018-07-06T02:51:55.651Z,60.78
2018-07-06T02:54:35.411Z,60.85
2018-07-06T02:57:15.061Z,61.04
2018-07-06T02:59:54.735Z,61.43
2018-07-06T03:02:34.541Z,60.51
2018-07-06T03:05:14.395Z,60.18
2018-07-06T03:07:54.071Z,60.71
2018-07-06T03:10:33.672Z,60.76
2018-07-06T03:13:13.332Z,59.97
2018-07-06T03:15:53.123Z,61.47
2018-07-06T03:18:32.943Z,61.18
2018-07-06T03:21:12.732Z,61.22
2018-07-06T03:23:52.532Z,60.55
2018-07-06T03:26:32.388Z,60.33
2018-07-06T03:29:12.138Z,60.51
2018-07-06T03:31:51.900Z,60.91
2018-07-06T03:34:31.598Z,61.17
2018-07-06T03:37:11.375Z,60.92
2018-07-06T03:39:51.093Z,61.27
2018-07-06T03:42:30.939Z,60.92
2018-07-06T03:45:10.687Z,61.07
2018-07-06T03:47:50.467Z,61.19
2018-07-06T03:50:30.260Z,60.85
2018-07-06T03:53:10.041Z,61.27
2018-07-06T03:55:49.868Z,61.13
2018-07-06T03:58:29.656Z,60.72
2018-07-06T04:01:09.553Z,61.00
2018-07-06T04:03:49.156Z,62.05
2018-07-06T04:06:28.783Z,62.40
2018-07-06T04:09:08.632Z,61.46
2018-07-06T04:11:48.237Z,61.41
2018-07-06T04:14:28.036Z,61.08
2018-07-06T04:17:07.784Z,61.01
2018-07-06T04:19:47.531Z,60.92
2018-07-06T04:22:27.330Z,61.53
2018-07-06T04:25:06.977Z,61.41
2018-07-06T04:27:46.770Z,61.57
2018-07-06T04:30:26.601Z,61.65
2018-07-06T04:33:06.482Z,61.93
2018-07-06T04:35:46.191Z,60.85
2018-07-06T04:38:26.006Z,61.71
2018-07-06T04:41:05.887Z,61.67
2018-07-06T04:43:45.670Z,60.60
2018-07-06T04:46:25.244Z,61.23
2018-07-06T04:49:05.028Z,60.93
2018-07-06T04:51:44.734Z,60.85
2018-07-06T04:54:24.687Z,61.28
2018-07-06T04:57:04.262Z,61.68
2018-07-06T04:59:44.040Z,61.21
2018-07-06T05:02:23.679Z,60.89
2018-07-06T05:05:03.462Z,61.66
2018-07-06T05:07:44.074Z,60.99
2018-07-06T05:10:23.905Z,61.22
2018-07-06T05:13:03.616Z,61.26
2018-07-06T05:15:43.363Z,60.89
2018-07-06T05:18:23.267Z,62.26
2018-07-06T05:21:02.972Z,61.16
2018-07-06T05:23:42.694Z,60.73
2018-07-06T05:26:22.287Z,61.96
2018-07-06T05:29:01.763Z,61.41
2018-07-06T05:31:41.524Z,61.99
2018-07-06T05:34:21.375Z,62.37
2018-07-06T05:37:01.132Z,61.88
2018-07-06T05:39:41.141Z,61.58
2018-07-06T05:42:20.843Z,61.90
2018-07-06T05:45:00.499Z,61.44
2018-07-06T05:47:40.224Z,61.83
2018-07-06T05:50:19.947Z,62.28
2018-07-06T05:52:59.656Z,61.20
2018-07-06T05:55:39.337Z,60.51
2018-07-06T05:58:19.132Z,60.90
2018-07-06T06:00:58.964Z,59.87
2018-07-06T06:03:38.740Z,60.07
2018-07-06T06:06:18.520Z,60.15
2018-07-06T06:08:45.796Z,59.54
2018-07-06T06:11:14.143Z,59.95
2018-07-06T06:13:42.524Z,60.47
2018-07-06T06:16:10.836Z,59.88
2018-07-06T06:18:39.593Z,60.68
2018-07-06T06:21:08.300Z,60.05
2018-07-06T06:23:36.680Z,60.10
2018-07-06T06:26:05.121Z,60.56
2018-07-06T06:28:33.676Z,59.72
2018-07-06T06:31:02.629Z,60.46
2018-07-06T06:33:31.190Z,59.56
2018-07-06T06:35:59.541Z,60.07
2018-07-06T06:38:27.925Z,59.92
2018-07-06T06:40:56.431Z,60.34
2018-07-06T06:43:24.831Z,60.02
2018-07-06T06:45:53.357Z,59.87
2018-07-06T06:48:21.905Z,59.26
2018-07-06T06:50:50.844Z,59.93
2018-07-06T06:53:19.453Z,59.80
2018-07-06T06:55:47.957Z,60.24
2018-07-06T06:58:16.380Z,60.68
2018-07-06T07:00:44.759Z,60.24
2018-07-06T07:03:13.143Z,60.30
2018-07-06T07:05:41.522Z,60.31
2018-07-06T07:08:09.964Z,60.65
2018-07-06T07:10:38.348Z,59.88
2018-07-06T07:13:06.762Z,60.65
2018-07-06T07:15:35.139Z,60.06
2018-07-06T07:18:03.572Z,61.13
2018-07-06T07:20:32.538Z,60.49
2018-07-06T07:23:00.923Z,60.37
2018-07-06T07:25:29.780Z,60.93
2018-07-06T07:27:58.161Z,61.00
2018-07-06T07:30:26.505Z,60.55
2018-07-06T07:32:54.903Z,61.28
2018-07-06T07:35:23.860Z,61.19
2018-07-06T10:58:01.918Z,62.72
2018-07-06T11:00:30.260Z,62.41
2018-07-06T11:02:58.623Z,62.86
2018-07-06T11:05:27.003Z,62.49
2018-07-06T11:07:55.332Z,63.81
2018-07-06T11:10:23.648Z,62.16
2018-07-06T11:12:51.986Z,62.20
2018-07-06T11:15:20.328Z,62.23
2018-07-06T11:17:48.684Z,62.34
2018-07-06T11:20:17.095Z,62.45
2018-07-06T11:22:45.444Z,62.82
2018-07-06T11:25:13.787Z,61.89
2018-07-06T11:27:42.123Z,62.78
2018-07-06T11:30:10.504Z,62.34
2018-07-06T11:32:38.842Z,63.38
2018-07-06T11:35:07.327Z,62.78
2018-07-06T11:37:35.827Z,63.29
2018-07-06T11:40:04.190Z,63.10
2018-07-06T11:42:32.567Z,63.63
2018-07-06T11:45:00.994Z,62.56
2018-07-06T11:47:29.286Z,62.59
2018-07-06T11:49:57.625Z,63.67
2018-07-06T11:52:25.952Z,63.21
2018-07-06T11:54:54.365Z,64.32
2018-07-06T11:57:22.739Z,63.28
2018-07-06T11:59:51.172Z,64.30
2018-07-06T12:02:19.520Z,63.20
2018-07-06T12:04:47.860Z,64.33
2018-07-06T12:07:16.211Z,62.98
2018-07-06T12:09:44.532Z,63.79
2018-07-06T12:12:12.863Z,63.39
2018-07-06T12:14:41.188Z,62.80
2018-07-06T12:17:09.536Z,63.09
2018-07-06T12:19:37.856Z,63.72
2018-07-06T12:22:06.228Z,63.10
2018-07-06T12:24:34.573Z,62.05
2018-07-06T12:27:02.904Z,63.11
2018-07-06T12:29:31.252Z,62.54
2018-07-06T12:31:59.664Z,63.61
2018-07-06T12:34:27.985Z,63.39
2018-07-06T12:36:56.606Z,63.08
2018-07-06T12:39:24.947Z,62.71
2018-07-06T12:41:53.282Z,63.12
2018-07-06T12:44:21.618Z,63.23
2018-07-06T12:46:49.951Z,61.76
2018-07-06T12:49:18.291Z,61.64
2018-07-06T12:51:46.624Z,62.33
2018-07-06T12:54:15.150Z,62.15
2018-07-06T12:56:43.489Z,60.86
2018-07-06T12:59:11.819Z,60.97
2018-07-06T13:05:31.965Z,60.51
2018-07-06T13:08:00.304Z,61.00
2018-07-06T13:10:28.737Z,61.22
2018-07-06T13:12:57.036Z,60.63
2018-07-06T13:15:25.384Z,60.04
2018-07-06T13:17:53.717Z,60.04
2018-07-06T13:20:22.069Z,59.12
2018-07-06T13:22:50.412Z,58.92
2018-07-06T13:25:18.748Z,58.92
2018-07-06T13:27:47.064Z,59.20
2018-07-06T13:30:15.442Z,59.82
2018-07-06T13:32:43.827Z,58.70
2018-07-06T13:35:12.238Z,58.92
2018-07-06T13:37:40.617Z,58.36
2018-07-06T13:40:09.000Z,59.37
2018-07-06T13:42:37.371Z,58.47
2018-07-06T13:45:06.197Z,59.44
2018-07-06T13:47:34.666Z,59.35
2018-07-06T13:50:03.128Z,58.65
2018-07-06T13:52:31.571Z,58.57
2018-07-06T13:54:59.943Z,58.40
2018-07-06T13:57:28.307Z,58.98
2018-07-06T13:59:56.712Z,57.95
2018-07-06T14:02:25.088Z,58.96
2018-07-06T14:04:53.453Z,59.62
2018-07-06T14:07:21.884Z,60.03
2018-07-06T14:09:50.329Z,58.99
2018-07-06T14:12:18.845Z,58.19
2018-07-06T14:14:47.629Z,59.01
2018-07-06T14:17:16.024Z,58.96
2018-07-06T14:19:44.428Z,58.48
2018-07-06T14:22:13.482Z,58.92
2018-07-06T14:24:42.347Z,59.29
2018-07-06T14:27:11.367Z,58.47
2018-07-06T14:29:39.819Z,57.30
2018-07-06T14:32:08.258Z,57.62
2018-07-06T14:34:36.698Z,57.40
2018-07-06T14:37:05.049Z,57.07
2018-07-06T14:39:33.985Z,57.10
2018-07-06T14:42:02.399Z,56.74
2018-07-06T14:44:31.472Z,56.68
2018-07-06T14:47:00.031Z,56.50
2018-07-06T14:49:28.380Z,56.46
2018-07-06T14:51:57.765Z,54.94
2018-07-06T14:54:26.515Z,55.00
2018-07-06T14:56:54.967Z,54.68
2018-07-06T14:59:23.441Z,55.42
2018-07-06T15:01:51.774Z,55.27
2018-07-06T15:04:20.116Z,55.34
2018-07-06T15:06:48.579Z,54.78
2018-07-06T15:09:16.899Z,56.22
2018-07-06T15:11:45.375Z,55.21
2018-07-06T15:14:13.752Z,54.11
2018-07-06T15:16:42.069Z,54.36
2018-07-06T15:19:10.419Z,55.13
2018-07-06T15:21:38.817Z,55.36
2018-07-06T15:24:07.319Z,54.97
2018-07-06T15:26:35.703Z,55.36
2018-07-06T15:29:04.547Z,55.36
2018-07-06T15:31:32.989Z,55.22
2018-07-06T15:34:01.399Z,54.32
2018-07-06T15:36:29.731Z,54.65
2018-07-06T15:38:58.096Z,54.39
2018-07-06T15:41:26.436Z,54.09
2018-07-06T15:43:54.769Z,54.56
2018-07-06T15:46:23.129Z,54.64
2018-07-06T15:48:51.467Z,54.13
2018-07-06T15:51:19.812Z,54.25
2018-07-06T15:53:48.148Z,54.18
2018-07-06T15:56:16.457Z,53.74
2018-07-06T15:58:44.818Z,53.88
2018-07-06T16:01:13.167Z,53.99
2018-07-06T16:03:41.491Z,54.57
2018-07-06T16:06:09.850Z,53.66
2018-07-06T16:08:38.195Z,53.37
2018-07-06T16:11:06.534Z,53.63
2018-07-06T16:13:34.852Z,53.27
2018-07-06T16:16:03.261Z,53.62
2018-07-06T16:18:31.610Z,52.85
2018-07-06T16:20:59.955Z,53.35
2018-07-06T16:23:28.295Z,53.80
2018-07-06T16:25:56.672Z,53.60
2018-07-06T16:28:25.019Z,54.00
2018-07-06T16:30:53.372Z,53.98
2018-07-06T16:33:21.711Z,53.97
2018-07-06T16:35:50.054Z,53.26
2018-07-06T16:38:18.376Z,53.85
2018-07-06T16:40:46.712Z,53.82
2018-07-06T16:43:15.028Z,53.47
2018-07-06T16:45:43.471Z,53.41
2018-07-06T16:48:11.807Z,53.68
2018-07-06T16:50:40.256Z,53.05
2018-07-06T16:53:08.592Z,53.36
2018-07-06T16:55:36.912Z,53.40
2018-07-06T16:58:05.264Z,53.21
2018-07-06T17:00:33.629Z,52.06
2018-07-06T17:03:01.962Z,51.99
2018-07-06T17:05:30.403Z,51.17
2018-07-06T17:07:58.804Z,50.93
2018-07-06T17:10:27.134Z,51.54
2018-07-06T17:12:55.459Z,51.94
2018-07-06T17:15:23.789Z,50.64
2018-07-06T17:17:52.141Z,51.22
2018-07-06T17:20:20.495Z,50.83
2018-07-06T17:22:48.835Z,50.96
2018-07-06T17:25:17.176Z,50.52
2018-07-06T17:27:45.583Z,50.25
2018-07-06T17:30:13.929Z,50.55
2018-07-06T17:32:42.267Z,51.11
2018-07-06T17:35:10.589Z,51.88
2018-07-06T17:37:39.166Z,51.18
2018-07-06T17:40:07.508Z,50.58
2018-07-06T17:42:35.851Z,50.70
2018-07-06T17:45:04.249Z,50.87
2018-07-06T17:47:32.582Z,50.76
2018-07-06T17:50:00.930Z,51.08
2018-07-06T17:52:29.255Z,51.02
2018-07-06T17:54:57.600Z,51.35
2018-07-06T17:57:25.961Z,50.66
2018-07-06T17:59:54.360Z,50.35
2018-07-06T18:02:22.772Z,49.92
2018-07-06T18:04:51.190Z,51.36
2018-07-06T18:07:19.628Z,48.80
2018-07-06T18:09:47.959Z,48.71
2018-07-06T18:12:16.273Z,47.56
2018-07-06T18:14:44.682Z,43.11
2018-07-06T18:17:13.874Z,42.21
2018-07-06T18:19:42.230Z,38.62
2018-07-06T18:22:10.571Z,40.07
2018-07-06T18:24:38.899Z,39.49
2018-07-06T18:27:07.249Z,41.80
2018-07-06T18:29:35.639Z,39.58
2018-07-06T18:32:03.976Z,41.61
2018-07-06T18:34:32.328Z,41.66
2018-07-06T18:37:00.670Z,39.07
2018-07-06T18:39:29.143Z,40.24
2018-07-06T18:41:57.526Z,39.58
2018-07-06T18:44:25.864Z,39.94
2018-07-06T18:46:54.209Z,40.18
2018-07-06T18:49:22.545Z,41.04
2018-07-06T18:51:50.881Z,39.50
2018-07-06T18:54:19.224Z,40.08
2018-07-06T18:56:47.568Z,41.23
2018-07-06T18:59:15.913Z,40.05
2018-07-06T19:01:44.270Z,39.22
2018-07-06T19:04:12.609Z,38.30
2018-07-06T19:06:40.935Z,38.84
2018-07-06T19:09:09.292Z,40.36
2018-07-06T19:11:37.636Z,39.95
2018-07-06T19:14:05.975Z,40.81
2018-07-06T19:16:34.332Z,39.74
2018-07-06T19:19:02.687Z,39.85
2018-07-06T19:21:31.048Z,40.96
2018-07-06T19:23:59.383Z,41.42
2018-07-06T19:26:27.776Z,40.88
2018-07-06T19:28:56.326Z,42.43
2018-07-06T19:31:24.672Z,41.79
2018-07-06T19:33:53.187Z,41.68
2018-07-06T19:36:21.529Z,41.68
2018-07-06T19:38:50.346Z,41.69
2018-07-06T19:41:18.676Z,41.69
2018-07-06T19:43:47.044Z,41.94
2018-07-06T19:46:15.397Z,42.03
2018-07-06T19:48:43.767Z,42.14
2018-07-06T19:51:12.243Z,43.50
2018-07-06T19:53:40.604Z,41.59
2018-07-06T19:56:08.978Z,42.47
2018-07-06T19:58:37.356Z,42.50
2018-07-06T20:01:05.707Z,42.92
2018-07-06T20:03:34.115Z,43.00
2018-07-06T20:06:02.493Z,43.02
2018-07-06T20:08:30.870Z,42.85
2018-07-06T20:10:59.176Z,43.38
2018-07-06T20:13:27.587Z,44.15
2018-07-06T20:15:55.906Z,43.91
2018-07-06T20:18:24.216Z,43.49
2018-07-06T20:20:52.562Z,43.74
2018-07-06T20:23:21.069Z,45.26
2018-07-06T20:25:49.429Z,63.16
2018-07-06T20:28:17.757Z,68.66
2018-07-06T20:30:46.108Z,69.14
2018-07-06T20:33:14.464Z,68.67
2018-07-06T20:35:42.809Z,61.23
2018-07-06T20:38:11.184Z,64.20
2018-07-06T20:40:39.515Z,59.42
2018-07-06T20:43:07.840Z,56.04
2018-07-06T20:45:36.227Z,56.76
2018-07-06T20:48:04.631Z,53.15
2018-07-06T20:50:33.012Z,53.55
2018-07-06T20:53:01.316Z,52.81
2018-07-06T20:55:29.666Z,54.43
2018-07-06T20:57:58.172Z,50.82
2018-07-06T21:00:26.652Z,52.52
2018-07-06T21:02:55.241Z,50.24
2018-07-06T21:05:23.720Z,48.60
2018-07-06T21:07:52.043Z,50.20
2018-07-06T21:10:20.393Z,50.78
2018-07-06T21:12:48.736Z,50.42
2018-07-06T21:15:17.048Z,47.31
2018-07-06T21:17:45.501Z,49.05
2018-07-06T21:20:14.008Z,48.52
2018-07-06T21:22:42.447Z,47.91
2018-07-06T21:25:11.071Z,48.37
2018-07-06T21:27:39.588Z,48.63
2018-07-06T21:30:08.022Z,49.00
2018-07-06T21:32:36.482Z,48.29
2018-07-06T21:35:04.938Z,47.97
2018-07-06T21:37:33.341Z,47.55
2018-07-06T21:40:01.787Z,47.50
2018-07-06T21:42:30.267Z,50.23
2018-07-06T21:44:58.994Z,48.97
2018-07-06T21:47:27.503Z,47.35
2018-07-06T21:49:55.833Z,48.29
2018-07-06T21:52:24.342Z,47.37
2018-07-06T21:54:52.683Z,49.37
2018-07-06T21:57:21.025Z,47.95
2018-07-06T21:59:49.472Z,47.52
2018-07-06T22:02:18.125Z,48.05
2018-07-06T22:04:47.475Z,49.52
2018-07-06T22:07:16.828Z,48.79
2018-07-06T22:09:45.857Z,49.34
2018-07-06T22:12:14.940Z,48.54
2018-07-06T22:14:43.604Z,47.87
2018-07-06T22:17:12.188Z,48.60
2018-07-06T22:19:40.563Z,48.53
2018-07-06T22:22:08.952Z,48.83
2018-07-06T22:24:37.520Z,48.60
2018-07-06T22:27:06.028Z,48.81
2018-07-06T22:29:34.410Z,49.44
2018-07-06T22:32:02.784Z,48.85
2018-07-06T22:34:31.269Z,48.77
2018-07-06T22:36:59.751Z,48.96
2018-07-06T22:39:28.250Z,49.99
2018-07-06T22:41:56.612Z,50.74
2018-07-06T22:44:24.943Z,50.02
2018-07-06T22:46:53.300Z,50.39
2018-07-06T22:49:21.942Z,50.10
2018-07-06T22:51:50.290Z,50.50
2018-07-06T22:54:18.756Z,50.69
2018-07-06T22:56:47.290Z,50.48
2018-07-06T22:59:15.619Z,52.28
2018-07-06T23:01:43.923Z,51.81
2018-07-06T23:04:12.261Z,51.39
2018-07-06T23:06:40.632Z,51.41
2018-07-06T23:09:09.011Z,51.82
2018-07-06T23:11:37.335Z,52.30
2018-07-06T23:14:05.657Z,52.72
2018-07-06T23:16:33.988Z,52.36
2018-07-06T23:19:02.343Z,52.74
2018-07-06T23:21:30.669Z,53.08
2018-07-06T23:23:59.001Z,53.65
2018-07-06T23:26:27.368Z,55.21
2018-07-06T23:28:55.712Z,54.02
2018-07-06T23:31:24.036Z,54.01
2018-07-06T23:33:52.420Z,54.48
2018-07-06T23:36:20.764Z,55.01
2018-07-06T23:38:49.088Z,55.49
2018-07-06T23:41:17.428Z,54.70
2018-07-06T23:43:45.802Z,54.31
2018-07-06T23:46:14.385Z,55.45
2018-07-06T23:48:42.865Z,55.95
2018-07-06T23:51:11.184Z,55.81
2018-07-06T23:53:39.516Z,56.85
2018-07-06T23:56:08.001Z,57.60
2018-07-06T23:58:36.336Z,57.65
